Time;durP1;ratioP1;P1;durP2;ratioP2;P2;SDS_P1;SDS_P2;PMS_P1;PMS_P2;Temp;Humidity;BMP_temperature;BMP_pressure;BME280_temperature;BME280_humidity;BME280_pressure;Samples;Min_cycle;Max_cycle;Signal;HPM_P1;HPM_P2
2022/07/18 00:00:03;;;;;;;3.65;1.52;;;;;;;18.21;48.61;99742.00;5061691;28;20110;-79
2022/07/18 00:02:29;;;;;;;1.50;0.93;;;;;;;18.45;48.56;99758.41;5086501;28;20039;-79
2022/07/18 00:04:54;;;;;;;5.80;1.60;;;;;;;18.41;48.63;99746.50;5056241;28;20115;-79
2022/07/18 00:07:19;;;;;;;3.42;1.30;;;;;;;18.28;48.44;99747.09;5072595;28;20028;-79
2022/07/18 00:09:45;;;;;;;5.95;1.40;;;;;;;18.29;48.51;99757.63;5073192;28;20037;-79
2022/07/18 00:12:11;;;;;;;3.58;1.63;;;;;;;17.47;51.22;99746.44;5056139;28;20067;-79
2022/07/18 00:14:37;;;;;;;3.83;1.38;;;;;;;17.17;50.57;99722.97;5071887;28;20131;-79
2022/07/18 00:17:03;;;;;;;3.53;1.38;;;;;;;17.76;49.39;99761.00;5068078;28;20025;-79
2022/07/18 00:19:29;;;;;;;4.55;1.65;;;;;;;17.84;49.38;99766.66;5053970;28;20032;-79
2022/07/18 00:21:55;;;;;;;4.18;1.63;;;;;;;17.80;49.07;99768.28;5054286;28;20031;-79
2022/07/18 00:24:20;;;;;;;3.20;1.70;;;;;;;17.32;50.86;99774.22;5054208;28;20021;-79
2022/07/18 00:26:46;;;;;;;2.72;1.67;;;;;;;16.99;51.95;99748.56;5052851;28;20033;-79
2022/07/18 00:29:11;;;;;;;3.97;1.90;;;;;;;16.76;52.83;99769.84;5052467;28;20032;-78
2022/07/18 00:31:38;;;;;;;2.78;1.65;;;;;;;17.11;51.66;99786.09;5061522;28;20567;-79
2022/07/18 00:34:04;;;;;;;1.58;1.45;;;;;;;17.24;51.49;99777.47;5064310;28;20085;-79
2022/07/18 00:36:30;;;;;;;2.90;1.58;;;;;;;16.78;52.93;99779.28;5073260;28;20043;-79
2022/07/18 00:38:56;;;;;;;3.97;1.58;;;;;;;16.25;53.87;99760.75;5073217;28;20025;-79
2022/07/18 00:41:22;;;;;;;1.60;1.50;;;;;;;16.95;51.84;99787.16;5054960;28;20113;-78
2022/07/18 00:43:48;;;;;;;5.40;1.60;;;;;;;17.33;50.36;99765.06;5088975;28;20486;-79
2022/07/18 00:46:14;;;;;;;3.40;1.80;;;;;;;17.21;50.61;99768.03;5072198;28;20036;-78
2022/07/18 00:48:40;;;;;;;1.98;1.73;;;;;;;17.07;50.55;99756.16;5070158;28;20032;-79
2022/07/18 00:51:07;;;;;;;1.75;1.40;;;;;;;17.17;50.32;99752.66;5061366;28;20340;-79
2022/07/18 00:53:33;;;;;;;2.65;1.80;;;;;;;17.30;50.53;99746.72;5085092;28;20024;-79
2022/07/18 00:55:59;;;;;;;1.90;1.73;;;;;;;17.64;49.89;99760.50;5066806;28;20495;-79
2022/07/18 00:58:24;;;;;;;2.13;1.33;;;;;;;17.31;50.37;99747.53;5068681;28;20059;-79
2022/07/18 01:03:34;;;;;;;1.42;1.30;;;;;;;17.45;50.18;99762.13;5072514;28;20070;-79
2022/07/18 01:05:59;;;;;;;1.42;1.33;;;;;;;17.49;50.24;99760.47;5072168;28;20283;-79
2022/07/18 01:08:25;;;;;;;1.60;1.45;;;;;;;17.41;49.96;99767.22;5070392;28;20028;-79
2022/07/18 01:10:51;;;;;;;4.40;1.70;;;;;;;17.38;49.96;99765.09;5030189;28;20119;-79
2022/07/18 01:13:17;;;;;;;4.40;1.77;;;;;;;17.23;50.41;99768.56;5055269;28;20551;-79
2022/07/18 01:15:43;;;;;;;3.00;1.58;;;;;;;17.32;50.42;99754.56;5072910;28;20502;-79
2022/07/18 01:18:08;;;;;;;3.20;1.80;;;;;;;17.14;50.44;99743.22;5087389;28;20020;-79
2022/07/18 01:20:34;;;;;;;1.38;1.27;;;;;;;17.24;51.02;99761.28;5069894;28;20039;-79
2022/07/18 01:22:59;;;;;;;3.70;1.80;;;;;;;17.09;50.67;99727.03;5054527;28;20549;-79
2022/07/18 01:25:25;;;;;;;2.33;1.70;;;;;;;17.23;50.70;99754.28;5071448;28;20028;-79
2022/07/18 01:27:51;;;;;;;3.10;1.38;;;;;;;17.16;50.58;99759.13;5054655;28;20024;-78
2022/07/18 01:30:16;;;;;;;3.28;1.60;;;;;;;17.13;51.02;99748.88;5071460;28;20442;-79
2022/07/18 01:32:42;;;;;;;2.58;1.50;;;;;;;17.15;50.63;99752.09;5054723;28;20146;-79
2022/07/18 01:35:08;;;;;;;3.53;1.70;;;;;;;17.01;51.17;99730.28;5053484;28;20488;-79
2022/07/18 01:37:33;;;;;;;1.50;1.40;;;;;;;16.72;52.00;99721.03;5063309;28;20032;-79
2022/07/18 01:39:59;;;;;;;3.40;2.22;;;;;;;15.56;55.97;99752.00;5051303;28;20028;-78
2022/07/18 01:42:24;;;;;;;9.40;2.08;;;;;;;14.84;57.45;99727.44;5064112;28;20037;-79
2022/07/18 01:44:50;;;;;;;3.50;2.00;;;;;;;15.08;56.40;99752.94;5060744;28;20024;-78
2022/07/18 01:47:15;;;;;;;1.98;1.63;;;;;;;15.38;54.65;99741.59;5053274;28;20056;-79
2022/07/18 01:49:42;;;;;;;3.47;1.73;;;;;;;16.02;53.04;99747.69;5063514;28;20419;-79
2022/07/18 01:52:08;;;;;;;3.17;2.00;;;;;;;15.48;56.13;99731.78;5070581;28;20028;-79
2022/07/18 01:54:35;;;;;;;2.33;1.33;;;;;;;15.63;55.26;99757.97;5066752;28;20503;-79
2022/07/18 01:57:03;;;;;;;10.68;2.10;;;;;;;15.15;56.79;99728.50;5079541;28;20567;-79
2022/07/18 01:59:28;;;;;;;3.53;2.10;;;;;;;15.89;53.46;99745.47;5070839;28;20086;-78
2022/07/18 02:01:54;;;;;;;4.90;1.75;;;;;;;16.08;52.85;99752.84;5054924;28;20024;-79
2022/07/18 02:04:20;;;;;;;2.53;1.67;;;;;;;16.39;52.23;99738.44;5072307;28;20028;-79
2022/07/18 02:06:45;;;;;;;1.88;1.65;;;;;;;16.62;51.97;99739.88;5070945;28;20025;-78
2022/07/18 02:09:11;;;;;;;4.35;1.90;;;;;;;16.65;51.65;99731.28;5066197;28;20155;-79
2022/07/18 02:11:37;;;;;;;2.13;1.50;;;;;;;16.74;51.62;99740.47;5068682;28;20052;-78
2022/07/18 02:14:04;;;;;;;1.77;1.63;;;;;;;16.64;51.76;99726.16;5054760;28;20124;-79
2022/07/18 02:16:31;;;;;;;3.47;1.40;;;;;;;16.43;52.31;99755.69;5057657;28;20057;-79
2022/07/18 02:18:57;;;;;;;3.20;1.80;;;;;;;15.82;54.35;99743.03;5075100;28;20024;-78
2022/07/18 02:21:22;;;;;;;3.03;1.60;;;;;;;15.95;53.06;99744.44;5058562;28;20036;-78
2022/07/18 02:23:50;;;;;;;3.45;1.60;;;;;;;16.30;52.91;99744.59;5074197;28;20078;-79
2022/07/18 02:26:16;;;;;;;2.65;1.35;;;;;;;16.49;52.16;99734.97;5070606;28;20035;-78
2022/07/18 02:28:42;;;;;;;1.95;1.60;;;;;;;16.33;52.25;99717.97;5064886;28;20090;-79
2022/07/18 02:31:08;;;;;;;3.28;1.60;;;;;;;16.62;51.95;99725.63;5056250;28;20111;-79
2022/07/18 02:33:34;;;;;;;4.65;2.13;;;;;;;16.57;51.77;99730.97;5038468;28;20033;-78
2022/07/18 02:35:59;;;;;;;3.60;1.55;;;;;;;16.32;52.10;99712.81;5054893;28;20025;-79
2022/07/18 02:38:25;;;;;;;1.80;1.67;;;;;;;15.91;52.73;99703.75;5054315;28;20534;-79
2022/07/18 02:40:50;;;;;;;3.28;1.58;;;;;;;16.41;52.24;99740.88;5079289;28;20040;-79
2022/07/18 02:43:16;;;;;;;2.53;1.85;;;;;;;16.53;52.35;99729.91;5058339;28;20428;-79
2022/07/18 02:45:42;;;;;;;2.78;1.55;;;;;;;16.45;52.36;99737.38;5076284;28;20024;-79
2022/07/18 02:48:08;;;;;;;6.63;3.75;;;;;;;14.59;57.09;99650.06;5057867;28;20508;-78
2022/07/18 02:50:33;;;;;;;4.03;1.98;;;;;;;14.97;56.90;99733.22;5058210;28;20464;-78
2022/07/18 02:52:58;;;;;;;2.55;1.50;;;;;;;15.01;56.89;99755.00;5057988;28;20086;-78
2022/07/18 02:55:24;;;;;;;4.05;1.48;;;;;;;15.08;55.23;99752.09;5057660;28;20036;-79
2022/07/18 02:57:49;;;;;;;4.45;2.10;;;;;;;14.93;56.20;99715.97;5057182;28;20070;-79
2022/07/18 03:00:16;;;;;;;3.20;1.83;;;;;;;15.10;56.27;99749.97;5061065;28;20071;-79
2022/07/18 03:02:42;;;;;;;3.47;2.22;;;;;;;15.24;55.96;99751.19;5055459;28;20496;-78
2022/07/18 03:05:08;;;;;;;3.60;2.00;;;;;;;14.37;58.29;99727.22;5054233;28;20037;-78
2022/07/18 03:07:34;;;;;;;3.60;2.30;;;;;;;14.38;59.25;99753.00;5055355;28;20037;-78
2022/07/18 03:09:59;;;;;;;3.20;1.77;;;;;;;14.92;56.02;99738.53;5054398;28;20025;-78
2022/07/18 03:12:24;;;;;;;5.10;1.92;;;;;;;15.69;54.13;99759.63;5039019;28;20480;-78
2022/07/18 03:14:50;;;;;;;2.97;1.95;;;;;;;15.83;53.68;99746.53;5054745;28;20119;-79
2022/07/18 03:17:16;;;;;;;2.97;1.60;;;;;;;15.75;53.20;99731.66;5070348;28;20399;-79
2022/07/18 03:19:42;;;;;;;1.88;1.35;;;;;;;15.74;53.33;99732.75;5055094;28;20031;-79
2022/07/18 03:22:07;;;;;;;3.83;2.13;;;;;;;15.43;54.05;99730.88;5070179;28;20029;-79
2022/07/18 03:24:33;;;;;;;2.80;2.05;;;;;;;15.88;53.66;99717.75;5055461;28;20037;-78
2022/07/18 03:26:59;;;;;;;3.60;1.40;;;;;;;16.23;52.81;99742.16;5053134;28;20079;-78
2022/07/18 03:29:24;;;;;;;2.97;1.75;;;;;;;16.09;52.88;99719.47;5064824;28;20024;-78
2022/07/18 03:31:49;;;;;;;3.10;1.90;;;;;;;15.85;53.28;99726.34;5062590;28;20025;-78
2022/07/18 03:34:15;;;;;;;2.40;2.03;;;;;;;15.55;54.25;99745.00;5037329;28;20432;-78
2022/07/18 03:36:41;;;;;;;2.67;2.08;;;;;;;15.27;55.72;99731.81;5053192;28;20029;-79
2022/07/18 03:39:08;;;;;;;2.67;1.85;;;;;;;15.69;53.88;99738.09;5055076;28;20052;-78
2022/07/18 03:41:33;;;;;;;4.90;1.88;;;;;;;15.67;53.71;99727.59;5054975;28;20037;-79
2022/07/18 03:43:59;;;;;;;2.47;1.77;;;;;;;15.76;53.65;99741.38;5053487;28;20033;-79
2022/07/18 03:46:24;;;;;;;3.65;2.28;;;;;;;15.89;53.43;99729.31;5067736;28;20052;-79
2022/07/18 03:48:50;;;;;;;2.92;1.92;;;;;;;15.84;53.43;99726.59;5021056;28;20036;-79
2022/07/18 03:51:15;;;;;;;2.78;1.95;;;;;;;14.93;57.75;99739.34;5053511;28;20057;-79
2022/07/18 03:53:41;;;;;;;2.25;2.00;;;;;;;14.30;59.51;99721.22;5053274;28;20021;-79
2022/07/18 03:56:07;;;;;;;6.45;2.53;;;;;;;14.46;59.04;99733.75;5053224;28;20033;-79
2022/07/18 03:58:32;;;;;;;1.98;1.88;;;;;;;14.13;60.48;99747.31;5054445;28;20017;-78
2022/07/18 04:00:57;;;;;;;5.20;2.55;;;;;;;13.90;61.52;99729.53;5054420;28;20036;-79
2022/07/18 04:03:23;;;;;;;3.22;1.92;;;;;;;14.03;59.67;99731.03;5067284;28;20021;-79
2022/07/18 04:05:48;;;;;;;2.10;1.45;;;;;;;15.20;56.08;99747.41;5072172;28;20063;-79
2022/07/18 04:08:14;;;;;;;3.03;1.92;;;;;;;15.54;54.51;99724.53;5073026;28;20455;-79
2022/07/18 04:10:40;;;;;;;4.05;2.25;;;;;;;15.48;54.76;99737.16;5056016;28;20124;-79
2022/07/18 04:13:07;;;;;;;4.43;2.13;;;;;;;15.31;55.28;99719.50;5072737;28;20464;-79
2022/07/18 04:15:33;;;;;;;3.72;2.13;;;;;;;15.36;55.15;99706.06;5073530;28;20491;-78
2022/07/18 04:17:58;;;;;;;2.13;1.90;;;;;;;15.84;54.19;99716.66;5064872;28;20389;-79
2022/07/18 04:20:24;;;;;;;2.85;2.00;;;;;;;15.77;56.08;99738.41;5072015;28;20622;-78
2022/07/18 04:22:59;;;;;;;2.65;1.80;;;;;;;15.28;59.13;99736.16;5071396;28;20037;-78
2022/07/18 04:25:27;;;;;;;2.70;1.65;;;;;;;14.91;58.72;99712.72;5072611;28;20025;-78
2022/07/18 04:27:54;;;;;;;4.15;1.88;;;;;;;15.01;59.35;99720.06;5072411;28;20111;-79
2022/07/18 04:30:22;;;;;;;3.67;1.92;;;;;;;15.00;60.87;99732.69;5072556;28;20028;-79
2022/07/18 04:32:48;;;;;;;3.60;1.88;;;;;;;14.98;62.13;99734.81;5072396;28;20023;-79
2022/07/18 04:35:14;;;;;;;3.50;1.60;;;;;;;14.95;62.95;99718.41;5078632;28;20028;-78
2022/07/18 04:37:39;;;;;;;4.15;2.20;;;;;;;14.95;63.95;99732.66;5073930;28;20468;-79
2022/07/18 04:40:06;;;;;;;4.97;2.22;;;;;;;14.89;64.67;99736.38;5055282;28;20033;-79
2022/07/18 04:42:31;;;;;;;5.18;2.28;;;;;;;14.54;63.51;99706.44;5073354;28;20032;-78
2022/07/18 04:44:57;;;;;;;4.43;2.17;;;;;;;14.88;62.63;99729.34;5055473;28;20032;-79
2022/07/18 04:47:23;;;;;;;4.75;2.20;;;;;;;14.93;63.07;99723.22;5072901;28;20024;-78
2022/07/18 04:49:49;;;;;;;3.50;2.30;;;;;;;15.07;62.68;99737.06;5072684;28;20027;-79
2022/07/18 04:52:14;;;;;;;3.47;2.10;;;;;;;14.98;63.04;99721.38;5054562;28;20033;-78
2022/07/18 04:54:39;;;;;;;3.50;2.47;;;;;;;15.19;62.30;99700.84;5055317;28;20495;-79
2022/07/18 04:57:05;;;;;;;8.57;2.45;;;;;;;15.26;62.14;99698.75;5088292;28;20024;-78
2022/07/18 04:59:30;;;;;;;7.53;2.70;;;;;;;15.45;62.47;99726.09;5054688;28;20059;-78
2022/07/18 05:01:56;;;;;;;4.72;2.75;;;;;;;15.45;62.13;99699.19;5055104;28;20043;-79
2022/07/18 05:04:21;;;;;;;3.40;2.78;;;;;;;15.77;61.90;99711.50;5071395;28;20035;-79
2022/07/18 05:06:47;;;;;;;6.07;2.53;;;;;;;16.25;60.01;99709.56;5053737;28;20024;-79
2022/07/18 05:09:12;;;;;;;3.00;2.00;;;;;;;16.46;59.66;99711.25;5057150;28;20370;-80
2022/07/18 05:11:37;;;;;;;6.07;2.42;;;;;;;16.77;58.14;99712.16;5034797;28;20037;-79
2022/07/18 05:14:03;;;;;;;3.22;2.00;;;;;;;16.30;59.60;99710.38;5051571;28;20430;-79
2022/07/18 05:16:28;;;;;;;5.68;2.22;;;;;;;16.08;59.94;99715.16;5051366;28;20024;-78
2022/07/18 05:18:54;;;;;;;5.90;2.15;;;;;;;15.75;59.76;99720.91;5051252;28;20047;-79
2022/07/18 05:21:19;;;;;;;4.13;2.75;;;;;;;15.60;60.23;99697.41;5051373;28;20503;-79
2022/07/18 05:23:45;;;;;;;5.45;2.75;;;;;;;15.67;61.93;99721.41;5061994;28;20063;-78
2022/07/18 05:26:11;;;;;;;5.28;2.20;;;;;;;16.30;59.44;99707.69;5081667;28;20136;-79
2022/07/18 05:28:37;;;;;;;5.28;2.15;;;;;;;16.06;60.63;99716.47;5069364;28;20027;-79
2022/07/18 05:31:03;;;;;;;4.68;2.33;;;;;;;15.47;62.34;99695.16;5080729;28;20036;-79
2022/07/18 05:33:28;;;;;;;6.90;1.90;;;;;;;16.47;57.96;99713.66;5087910;28;20195;-79
2022/07/18 05:35:54;;;;;;;3.42;1.83;;;;;;;16.13;59.13;99687.44;5071204;28;20033;-78
2022/07/18 05:38:19;;;;;;;4.22;1.77;;;;;;;16.96;56.59;99689.81;5071863;28;20029;-79
2022/07/18 05:40:44;;;;;;;5.63;1.90;;;;;;;16.86;58.72;99718.66;5053286;28;20108;-79
2022/07/18 05:43:10;;;;;;;4.43;1.70;;;;;;;16.83;56.77;99698.41;5047646;28;20033;-79
2022/07/18 05:45:35;;;;;;;6.40;2.03;;;;;;;17.40;54.99;99708.94;5068028;28;20028;-79
2022/07/18 05:48:01;;;;;;;2.95;2.00;;;;;;;17.89;53.39;99684.81;5069528;28;20021;-79
2022/07/18 05:50:26;;;;;;;3.60;1.95;;;;;;;17.93;55.63;99704.81;5069660;28;20026;-79
2022/07/18 05:52:52;;;;;;;7.18;2.30;;;;;;;16.99;59.29;99713.50;5069929;28;20036;-79
2022/07/18 05:55:18;;;;;;;6.25;2.47;;;;;;;16.89;60.61;99716.22;5070030;28;20107;-79
2022/07/18 05:57:44;;;;;;;2.65;2.15;;;;;;;16.77;60.82;99712.16;5036825;28;20028;-79
2022/07/18 06:00:11;;;;;;;2.65;2.03;;;;;;;17.19;58.93;99708.13;5037010;28;20036;-79
2022/07/18 06:02:37;;;;;;;3.95;2.25;;;;;;;16.68;60.46;99711.06;5053877;28;20063;-79
2022/07/18 06:05:04;;;;;;;9.20;2.78;;;;;;;16.84;59.66;99713.50;5069466;28;20029;-79
2022/07/18 06:07:29;;;;;;;4.63;1.60;;;;;;;17.35;58.35;99724.31;5061734;28;20024;-79
2022/07/18 06:09:55;;;;;;;7.22;2.10;;;;;;;17.06;57.50;99705.97;5070536;28;20392;-78
2022/07/18 06:12:21;;;;;;;3.47;2.08;;;;;;;17.47;56.72;99716.75;5053430;28;20032;-79
2022/07/18 06:14:47;;;;;;;6.25;2.30;;;;;;;17.27;57.15;99716.78;5071700;28;20029;-79
2022/07/18 06:17:12;;;;;;;9.43;2.30;;;;;;;17.08;57.67;99684.16;5053288;28;20480;-79
2022/07/18 06:19:39;;;;;;;6.88;2.05;;;;;;;17.83;54.48;99680.53;5053418;28;20119;-79
2022/07/18 06:22:05;;;;;;;1.77;1.67;;;;;;;18.29;53.58;99708.97;5069398;28;20551;-79
2022/07/18 06:24:30;;;;;;;2.33;1.52;;;;;;;18.73;52.38;99697.41;5052655;28;20063;-79
2022/07/18 06:26:56;;;;;;;5.97;1.90;;;;;;;18.58;55.07;99695.63;5049706;28;20068;-79
2022/07/18 06:29:21;;;;;;;7.90;2.10;;;;;;;18.41;55.31;99705.97;5067012;28;20020;-79
2022/07/18 06:31:47;;;;;;;4.25;2.00;;;;;;;18.11;54.76;99684.47;5071422;28;20024;-79
2022/07/18 06:34:12;;;;;;;5.97;1.75;;;;;;;18.34;56.14;99694.63;5053095;28;20059;-79
2022/07/18 06:36:38;;;;;;;8.88;2.20;;;;;;;17.74;54.50;99684.84;5071007;28;20024;-79
2022/07/18 06:39:08;;;;;;;6.68;2.20;;;;;;;17.63;56.52;99675.97;5052675;28;20039;-78
2022/07/18 06:41:33;;;;;;;2.75;1.80;;;;;;;17.79;54.64;99684.84;5068751;28;20432;-78
2022/07/18 06:43:59;;;;;;;8.88;2.60;;;;;;;17.76;54.95;99671.88;5049934;28;20162;-79
2022/07/18 06:46:25;;;;;;;8.25;2.35;;;;;;;17.81;53.70;99680.81;5049878;28;20036;-78
2022/07/18 06:48:50;;;;;;;4.30;2.08;;;;;;;18.95;52.05;99681.56;5049730;28;20068;-78
2022/07/18 06:51:16;;;;;;;7.70;1.98;;;;;;;18.76;52.32;99686.84;5049780;28;20048;-79
2022/07/18 06:53:41;;;;;;;3.03;1.58;;;;;;;19.05;52.28;99698.50;5049912;28;20037;-79
2022/07/18 06:56:07;;;;;;;9.15;1.50;;;;;;;18.80;51.67;99676.25;5064350;28;20024;-79
2022/07/18 06:58:33;;;;;;;7.78;2.63;;;;;;;18.61;51.65;99681.50;5066255;28;20404;-79
2022/07/18 07:00:58;;;;;;;5.82;1.70;;;;;;;19.09;52.39;99650.06;5068663;28;20384;-79
2022/07/18 07:03:24;;;;;;;3.60;1.92;;;;;;;18.94;51.36;99678.03;5055471;28;20032;-79
2022/07/18 07:05:49;;;;;;;3.40;1.70;;;;;;;19.41;50.48;99683.63;5073387;28;20041;-79
2022/07/18 07:08:15;;;;;;;5.68;2.35;;;;;;;19.16;52.50;99672.16;5073217;28;20051;-79
2022/07/18 07:10:41;;;;;;;4.78;2.25;;;;;;;19.71;52.19;99684.38;5073173;28;20503;-79
2022/07/18 07:13:07;;;;;;;6.28;2.05;;;;;;;19.60;51.54;99669.34;5067847;28;20053;-79
2022/07/18 07:15:32;;;;;;;3.83;1.40;;;;;;;19.58;52.66;99656.09;5069378;28;20027;-79
2022/07/18 07:17:57;;;;;;;7.22;1.63;;;;;;;20.06;50.67;99676.66;5069287;28;20021;-79
2022/07/18 07:20:23;;;;;;;4.53;2.15;;;;;;;20.17;50.50;99674.63;5052905;28;20102;-79
2022/07/18 07:22:51;;;;;;;4.72;1.67;;;;;;;20.35;50.66;99673.88;5054268;28;20033;-79
2022/07/18 07:25:19;;;;;;;4.93;1.88;;;;;;;20.70;48.65;99664.44;5069311;28;20393;-79
2022/07/18 07:27:44;;;;;;;7.07;2.05;;;;;;;20.85;48.25;99675.88;5067810;28;20060;-79
2022/07/18 07:30:11;;;;;;;6.10;2.58;;;;;;;20.61;49.10;99675.16;5050585;28;20056;-79
2022/07/18 07:32:38;;;;;;;6.40;1.83;;;;;;;20.39;48.70;99652.41;5056393;28;20051;-79
2022/07/18 07:35:06;;;;;;;4.47;2.28;;;;;;;20.41;48.97;99639.34;5052639;28;20036;-79
2022/07/18 07:37:33;;;;;;;4.05;1.65;;;;;;;20.87;48.92;99657.38;5068678;28;20481;-79
2022/07/18 07:39:58;;;;;;;3.10;1.40;;;;;;;21.08;47.54;99643.50;5055411;28;20032;-79
2022/07/18 07:42:24;;;;;;;5.03;1.90;;;;;;;21.00;49.45;99661.22;5072109;28;20400;-79
2022/07/18 07:44:50;;;;;;;2.72;1.55;;;;;;;21.23;48.61;99668.47;5073417;28;20039;-79
2022/07/18 07:47:15;;;;;;;4.13;2.15;;;;;;;21.17;49.54;99647.13;5071969;28;20032;-79
2022/07/18 07:49:41;;;;;;;4.35;1.83;;;;;;;21.25;50.17;99662.75;5072322;28;20060;-79
2022/07/18 07:52:06;;;;;;;5.88;1.85;;;;;;;21.12;49.35;99664.31;5073396;28;20036;-79
2022/07/18 07:54:32;;;;;;;5.05;1.83;;;;;;;21.28;48.75;99667.56;5055398;28;20475;-80
2022/07/18 07:56:57;;;;;;;6.75;1.77;;;;;;;21.37;49.50;99657.63;5069881;28;20039;-79
2022/07/18 07:59:22;;;;;;;2.85;1.70;;;;;;;21.44;48.69;99653.44;5046996;28;20078;-79
2022/07/18 08:01:48;;;;;;;6.53;2.65;;;;;;;21.29;48.24;99639.31;5071921;28;20492;-79
2022/07/18 08:04:13;;;;;;;3.42;1.73;;;;;;;21.24;48.59;99645.66;5070792;28;20507;-79
2022/07/18 08:06:39;;;;;;;5.88;1.88;;;;;;;21.13;49.25;99621.69;5063654;28;20069;-79
2022/07/18 08:09:06;;;;;;;5.50;1.73;;;;;;;21.18;49.18;99610.72;5034984;28;20544;-79
2022/07/18 08:11:31;;;;;;;8.60;2.13;;;;;;;21.29;48.83;99617.59;5052146;28;20025;-79
2022/07/18 08:13:57;;;;;;;3.08;1.92;;;;;;;21.65;48.16;99635.63;5051761;28;20094;-79
2022/07/18 08:16:22;;;;;;;3.50;1.77;;;;;;;22.00;48.57;99636.03;5068289;28;20067;-79
2022/07/18 08:18:48;;;;;;;2.20;1.50;;;;;;;22.20;47.72;99635.63;5063911;28;20052;-79
2022/07/18 08:21:14;;;;;;;10.45;2.28;;;;;;;22.22;49.33;99636.09;5071279;28;20175;-79
2022/07/18 08:23:39;;;;;;;4.40;1.80;;;;;;;22.32;47.45;99622.31;5071484;28;20031;-79
2022/07/18 08:26:05;;;;;;;5.03;1.50;;;;;;;22.60;46.69;99636.66;5071417;28;20036;-79
2022/07/18 08:28:30;;;;;;;5.60;1.98;;;;;;;22.62;47.49;99643.41;5071203;28;20032;-79
2022/07/18 08:30:56;;;;;;;5.38;1.98;;;;;;;22.68;46.97;99644.06;5055063;28;20040;-79
2022/07/18 08:33:21;;;;;;;3.85;1.92;;;;;;;22.81;46.15;99632.31;5053696;28;20016;-79
2022/07/18 08:35:46;;;;;;;8.50;2.10;;;;;;;22.94;46.30;99636.91;5053020;28;20353;-79
2022/07/18 08:38:12;;;;;;;6.68;1.95;;;;;;;22.43;45.36;99607.38;5070969;28;20111;-79
2022/07/18 08:40:37;;;;;;;4.85;1.70;;;;;;;22.71;45.85;99627.13;5070660;28;20032;-79
2022/07/18 08:43:03;;;;;;;4.35;1.52;;;;;;;23.00;46.09;99630.19;5072233;28;20024;-79
2022/07/18 08:45:29;;;;;;;5.40;2.00;;;;;;;22.97;45.60;99596.25;5070731;28;20476;-79
2022/07/18 08:47:54;;;;;;;4.80;1.70;;;;;;;23.24;44.71;99603.44;5069879;28;20090;-79
2022/07/18 08:50:20;;;;;;;5.47;1.77;;;;;;;23.36;45.27;99598.25;5054113;28;20051;-79
2022/07/18 08:52:46;;;;;;;3.92;1.88;;;;;;;23.26;44.91;99598.50;5070545;28;20024;-79
2022/07/18 08:55:14;;;;;;;4.70;2.05;;;;;;;23.57;44.67;99625.72;5072007;28;20550;-79
2022/07/18 08:57:39;;;;;;;5.75;1.60;;;;;;;23.76;44.69;99620.84;5087162;28;20033;-80
2022/07/18 09:00:07;;;;;;;3.63;1.90;;;;;;;24.03;43.89;99628.78;5054127;28;20050;-80
2022/07/18 09:02:33;;;;;;;5.97;2.20;;;;;;;24.02;43.87;99629.91;5072099;28;20047;-79
2022/07/18 09:05:04;;;;;;;6.80;2.25;;;;;;;23.94;44.33;99627.16;5070735;28;20029;-79
2022/07/18 09:07:32;;;;;;;3.78;1.88;;;;;;;24.03;43.58;99617.84;5062056;28;20063;-79
2022/07/18 09:09:59;;;;;;;5.57;1.80;;;;;;;24.22;44.97;99623.06;5066911;28;20115;-79
2022/07/18 09:12:27;;;;;;;2.45;1.85;;;;;;;24.05;43.78;99623.81;5067089;28;20055;-79
2022/07/18 09:14:53;;;;;;;3.97;1.83;;;;;;;23.98;43.80;99614.50;5051835;28;20020;-79
2022/07/18 09:17:22;;;;;;;2.10;1.63;;;;;;;24.25;43.53;99625.16;5050325;28;20492;-79
2022/07/18 09:20:10;;;;;;;3.60;1.60;;;;;;;24.16;42.73;99610.69;5066875;28;20025;-79
2022/07/18 09:22:37;;;;;;;5.40;2.30;;;;;;;24.18;42.00;99614.69;5085471;28;20127;-79
2022/07/18 09:25:13;;;;;;;2.33;1.50;;;;;;;24.40;43.16;99611.84;5063369;28;20194;-79
2022/07/18 09:27:45;;;;;;;3.75;1.67;;;;;;;24.48;43.17;99604.78;5069878;28;20097;-79
2022/07/18 09:30:10;;;;;;;2.33;1.30;;;;;;;24.46;42.22;99616.00;5069123;28;20090;-79
2022/07/18 09:32:37;;;;;;;1.60;1.50;;;;;;;24.66;42.62;99611.06;5070095;28;20036;-79
2022/07/18 09:35:08;;;;;;;2.80;1.80;;;;;;;24.39;41.39;99601.25;5072156;28;20024;-79
2022/07/18 09:37:36;;;;;;;5.15;1.73;;;;;;;24.38;41.68;99607.81;5051972;28;20058;-79
2022/07/18 09:40:32;;;;;;;4.43;1.92;;;;;;;24.49;41.91;99598.19;5082581;28;20094;-79
2022/07/18 09:43:00;;;;;;;3.20;1.63;;;;;;;24.55;39.85;99602.38;5049957;28;20045;-80
2022/07/18 09:45:35;;;;;;;2.90;2.33;;;;;;;25.00;41.23;99589.16;5056106;28;20045;-80
2022/07/18 09:48:05;;;;;;;5.43;2.03;;;;;;;25.03;39.57;99589.31;5061824;28;20056;-79
2022/07/18 09:50:37;;;;;;;2.25;1.70;;;;;;;24.81;39.56;99584.09;5069333;28;20399;-79
2022/07/18 09:53:07;;;;;;;4.60;2.35;;;;;;;24.75;39.54;99588.09;5069293;28;20028;-79
2022/07/18 09:55:34;;;;;;;5.55;2.30;;;;;;;25.00;40.25;99589.97;5054375;28;20362;-79
2022/07/18 09:58:05;;;;;;;3.60;1.65;;;;;;;25.30;39.85;99588.91;5051227;28;20033;-79
2022/07/18 10:00:32;;;;;;;8.80;1.55;;;;;;;25.53;39.95;99572.28;5068359;28;20414;-80
2022/07/18 10:02:59;;;;;;;2.42;1.58;;;;;;;25.61;41.50;99579.66;5062382;28;20032;-79
2022/07/18 10:05:30;;;;;;;3.85;1.70;;;;;;;25.75;40.88;99580.22;5070114;28;20028;-79
2022/07/18 10:07:57;;;;;;;10.02;1.75;;;;;;;25.77;38.76;99578.78;5068488;28;20029;-80
2022/07/18 10:10:24;;;;;;;4.65;2.10;;;;;;;26.21;39.87;99584.78;5052525;28;20036;-80
2022/07/18 10:12:53;;;;;;;3.38;1.42;;;;;;;26.11;40.01;99555.88;5071368;28;20112;-79
2022/07/18 10:15:21;;;;;;;3.40;1.90;;;;;;;25.92;37.96;99564.50;5069854;28;20107;-79
2022/07/18 10:17:46;;;;;;;2.30;2.10;;;;;;;25.88;37.58;99576.44;5069743;28;20094;-79
2022/07/18 10:20:12;;;;;;;3.10;1.77;;;;;;;26.35;40.26;99572.44;5052998;28;20032;-79
2022/07/18 10:22:43;;;;;;;3.85;1.70;;;;;;;26.49;37.17;99581.19;5048987;28;20033;-79
2022/07/18 10:25:13;;;;;;;2.22;1.67;;;;;;;26.85;39.36;99585.19;5058008;28;20025;-80
2022/07/18 10:27:49;;;;;;;3.53;1.40;;;;;;;26.98;39.02;99573.94;5050936;28;20021;-79
2022/07/18 10:30:15;;;;;;;1.70;1.50;;;;;;;26.97;38.26;99574.28;5050975;28;20031;-80
2022/07/18 10:32:41;;;;;;;2.33;1.42;;;;;;;27.11;38.15;99583.00;5066251;28;20033;-80
2022/07/18 10:35:08;;;;;;;5.45;2.15;;;;;;;27.09;35.12;99585.28;5050783;28;20020;-80
2022/07/18 10:37:34;;;;;;;7.55;2.58;;;;;;;26.97;34.76;99577.03;5066644;28;20060;-80
2022/07/18 10:40:24;;;;;;;3.88;2.95;;;;;;;27.32;37.61;99579.06;5072477;28;20109;-80
2022/07/18 10:43:31;;;;;;;2.38;1.52;;;;;;;27.60;37.52;99584.69;5055680;28;20032;-80
2022/07/18 10:45:58;;;;;;;3.70;2.30;;;;;;;27.75;37.51;99573.03;5070285;28;20037;-80
2022/07/18 10:48:32;;;;;;;5.15;2.05;;;;;;;27.89;36.84;99581.69;5053127;28;20025;-80
2022/07/18 10:51:01;;;;;;;3.28;1.70;;;;;;;27.81;36.69;99568.91;5070437;28;20218;-80
2022/07/18 10:54:01;;;;;;;5.70;2.33;;;;;;;27.84;34.74;99565.47;5065893;28;20095;-80
2022/07/18 10:56:35;;;;;;;4.22;2.00;;;;;;;27.90;33.57;99564.09;5061929;28;20093;-80
2022/07/18 10:59:17;;;;;;;4.97;3.05;;;;;;;28.11;35.54;99562.00;5054479;28;20024;-80
2022/07/18 11:01:53;;;;;;;3.60;2.42;;;;;;;28.11;33.78;99545.53;5053142;28;20025;-80
2022/07/18 11:04:39;;;;;;;2.95;2.20;;;;;;;28.32;35.47;99548.13;5053646;28;20490;-80
2022/07/18 11:07:15;;;;;;;4.43;2.15;;;;;;;28.81;32.47;99546.78;5054641;28;20029;-80
2022/07/18 11:09:47;;;;;;;2.20;1.98;;;;;;;29.15;35.17;99553.56;5064615;28;20039;-80
2022/07/18 11:12:22;;;;;;;3.80;2.15;;;;;;;29.32;34.75;99552.44;5072697;28;20496;-80
2022/07/18 11:15:20;;;;;;;3.92;2.38;;;;;;;29.59;32.17;99544.09;5074085;28;20039;-80
2022/07/18 11:17:51;;;;;;;3.60;1.85;;;;;;;29.63;34.44;99544.16;5071851;28;20043;-80
2022/07/18 11:20:29;;;;;;;2.53;2.08;;;;;;;29.82;34.06;99535.97;5089658;28;20067;-80
2022/07/18 11:22:55;;;;;;;3.72;1.95;;;;;;;29.86;33.94;99536.84;5089828;28;20071;-81
2022/07/18 11:25:25;;;;;;;2.63;1.95;;;;;;;29.94;32.64;99522.13;5088355;28;20094;-80
2022/07/18 11:27:51;;;;;;;3.53;2.00;;;;;;;30.22;33.27;99530.16;5070820;28;20023;-80
2022/07/18 11:30:17;;;;;;;2.65;2.45;;;;;;;30.34;31.81;99521.78;5069392;28;20033;-80
2022/07/18 11:32:43;;;;;;;2.30;2.13;;;;;;;30.32;32.64;99500.13;5069294;28;20117;-80
2022/07/18 11:35:09;;;;;;;2.58;2.05;;;;;;;30.29;33.21;99495.31;5069048;28;20024;-80